Time;durP1;ratioP1;P1;durP2;ratioP2;P2;SDS_P1;SDS_P2;PMS_P1;PMS_P2;Temp;Humidity;BMP_temperature;BMP_pressure;BME280_temperature;BME280_humidity;BME280_pressure;Samples;Min_cycle;Max_cycle;Signal;HPM_P1;HPM_P2
2022/01/09 00:01:04;;;;;;;0.10;0.10;;;9.30;74.00;;;;;;5021898;28;20046;-50
2022/01/09 00:03:31;;;;;;;0.10;0.10;;;9.30;74.00;;;;;;5010283;28;20053;-51
2022/01/09 00:05:58;;;;;;;0.17;0.10;;;9.20;74.00;;;;;;5010865;28;20042;-49
2022/01/09 00:08:25;;;;;;;1.65;0.40;;;9.30;74.10;;;;;;5010601;28;20042;-49
2022/01/09 00:10:52;;;;;;;0.20;0.10;;;9.30;74.20;;;;;;5007450;28;20041;-48
2022/01/09 00:13:19;;;;;;;0.25;0.25;;;9.20;74.40;;;;;;5021161;28;20041;-47
2022/01/09 00:15:46;;;;;;;0.73;0.20;;;9.20;74.40;;;;;;5010842;28;20330;-48
2022/01/09 00:18:13;;;;;;;0.63;0.30;;;9.20;74.50;;;;;;5010395;28;20049;-46
2022/01/09 00:20:40;;;;;;;0.20;0.20;;;9.20;74.70;;;;;;5006266;28;20501;-46
2022/01/09 00:23:07;;;;;;;0.40;0.10;;;9.20;74.70;;;;;;5013878;28;20042;-50
2022/01/09 00:25:34;;;;;;;0.57;0.30;;;9.20;74.80;;;;;;5019594;28;20096;-50
2022/01/09 00:28:01;;;;;;;0.63;0.47;;;9.20;75.00;;;;;;5010758;28;20041;-50
2022/01/09 00:30:27;;;;;;;0.35;0.20;;;9.20;75.20;;;;;;5013889;28;20448;-49
2022/01/09 00:32:54;;;;;;;0.80;0.28;;;9.20;75.30;;;;;;5018420;28;20564;-47
2022/01/09 00:35:22;;;;;;;0.43;0.30;;;9.20;75.50;;;;;;5027883;28;20073;-51
2022/01/09 00:37:48;;;;;;;0.38;0.30;;;9.20;75.60;;;;;;5030412;28;20045;-47
2022/01/09 00:40:16;;;;;;;0.25;0.22;;;9.10;75.70;;;;;;5014636;28;20045;-48
2022/01/09 00:42:43;;;;;;;0.45;0.45;;;9.10;75.90;;;;;;5021557;28;20100;-48
2022/01/09 00:45:12;;;;;;;0.30;0.30;;;9.10;76.00;;;;;;5028247;28;20529;-49
2022/01/09 00:47:40;;;;;;;0.38;0.38;;;9.10;76.10;;;;;;5005052;28;20046;-47
2022/01/09 00:50:10;;;;;;;0.75;0.68;;;9.20;76.30;;;;;;5009524;28;20445;-49
2022/01/09 00:52:37;;;;;;;0.50;0.50;;;9.20;76.40;;;;;;5010579;28;20465;-48
2022/01/09 00:55:06;;;;;;;1.02;0.80;;;9.20;76.60;;;;;;5014991;28;20033;-50
2022/01/09 00:57:33;;;;;;;1.38;1.00;;;9.20;76.70;;;;;;5019584;28;20041;-50
2022/01/09 01:00:00;;;;;;;1.40;0.70;;;9.20;76.80;;;;;;5028799;28;20099;-49
2022/01/09 01:02:26;;;;;;;1.77;0.80;;;9.30;76.90;;;;;;5017144;28;20038;-47
2022/01/09 01:04:53;;;;;;;3.70;1.42;;;9.30;76.90;;;;;;5003542;28;20501;-48
2022/01/09 01:07:20;;;;;;;2.70;1.50;;;9.30;77.10;;;;;;5007335;28;20091;-50
2022/01/09 01:09:47;;;;;;;2.17;1.98;;;9.30;77.20;;;;;;5021850;28;20034;-51
2022/01/09 01:12:14;;;;;;;1.50;1.40;;;9.30;77.30;;;;;;5026752;28;20103;-50
2022/01/09 01:14:41;;;;;;;2.15;1.50;;;9.30;77.40;;;;;;5015441;28;20037;-51
2022/01/09 01:17:09;;;;;;;2.80;2.15;;;9.30;77.60;;;;;;5009982;28;20449;-51
2022/01/09 01:19:36;;;;;;;7.25;1.85;;;9.30;77.90;;;;;;5009769;28;20054;-46
2022/01/09 01:22:23;;;;;;;4.55;1.65;;;9.30;78.20;;;;;;5008126;28;20056;-48
2022/01/09 01:24:52;;;;;;;3.33;1.73;;;9.30;78.50;;;;;;5006687;28;20091;-50
2022/01/09 01:27:19;;;;;;;1.38;1.15;;;9.20;78.70;;;;;;5010253;28;20060;-49
2022/01/09 01:29:45;;;;;;;2.20;1.13;;;9.20;78.80;;;;;;5010166;28;20120;-50
2022/01/09 01:32:14;;;;;;;0.60;0.60;;;9.10;78.80;;;;;;5011004;28;20042;-49
2022/01/09 01:34:41;;;;;;;0.77;0.60;;;9.00;78.80;;;;;;5008357;28;20497;-49
2022/01/09 01:37:08;;;;;;;2.33;0.55;;;8.90;79.00;;;;;;5020640;28;20045;-47
2022/01/09 01:39:35;;;;;;;2.97;0.90;;;8.90;79.30;;;;;;5021287;28;20049;-50
2022/01/09 01:42:02;;;;;;;2.53;0.95;;;8.80;80.20;;;;;;5029825;28;20826;-48
2022/01/09 01:44:43;;;;;;;3.78;1.05;;;8.70;80.80;;;;;;5010037;28;20042;-48
2022/01/09 01:47:13;;;;;;;3.97;0.88;;;8.60;81.40;;;;;;5014596;28;20044;-47
2022/01/09 01:49:39;;;;;;;6.68;1.48;;;8.50;81.10;;;;;;5020971;28;20033;-49
2022/01/09 01:52:08;;;;;;;3.92;1.20;;;8.50;81.30;;;;;;5024581;28;20034;-48
2022/01/09 01:54:35;;;;;;;5.22;1.70;;;8.40;81.60;;;;;;5014501;28;20049;-47
2022/01/09 01:57:03;;;;;;;8.30;1.25;;;8.30;81.90;;;;;;5019428;28;20041;-49
2022/01/09 01:59:30;;;;;;;8.13;2.03;;;8.30;82.30;;;;;;5027144;28;20111;-47
2022/01/09 02:01:58;;;;;;;4.43;1.10;;;8.20;82.40;;;;;;5030018;28;20111;-52
2022/01/09 02:04:25;;;;;;;7.90;2.13;;;8.20;82.70;;;;;;5004987;28;20053;-49
2022/01/09 02:06:53;;;;;;;7.28;2.60;;;8.10;82.80;;;;;;5009703;28;20100;-51
2022/01/09 02:09:19;;;;;;;7.82;1.75;;;8.10;82.90;;;;;;5009085;28;20073;-50
2022/01/09 02:11:47;;;;;;;10.77;2.38;;;8.10;83.00;;;;;;5007683;28;20046;-48
2022/01/09 02:14:13;;;;;;;9.15;3.00;;;8.00;83.10;;;;;;5018065;28;20068;-47
2022/01/09 02:16:44;;;;;;;11.68;3.20;;;8.00;83.10;;;;;;5021258;28;20041;-50
2022/01/09 02:19:15;;;;;;;9.40;3.10;;;8.00;83.40;;;;;;5032609;28;20052;-51
2022/01/09 02:21:44;;;;;;;12.32;2.45;;;8.00;83.50;;;;;;5025199;28;20045;-48
2022/01/09 02:24:15;;;;;;;8.57;2.40;;;8.00;83.50;;;;;;5023167;28;20041;-49
2022/01/09 02:26:42;;;;;;;13.88;3.17;;;8.10;83.50;;;;;;5021683;28;20038;-48
2022/01/09 02:29:11;;;;;;;11.10;3.30;;;8.00;83.40;;;;;;5013314;28;20049;-50
2022/01/09 02:31:38;;;;;;;18.83;3.67;;;8.00;83.60;;;;;;5013631;28;20039;-50
2022/01/09 02:34:07;;;;;;;17.30;3.20;;;8.00;83.60;;;;;;5023952;28;20098;-52
2022/01/09 02:36:33;;;;;;;12.85;3.65;;;8.10;83.60;;;;;;5025535;28;20037;-51
2022/01/09 02:39:01;;;;;;;12.77;2.72;;;8.10;83.70;;;;;;5032714;28;20780;-51
2022/01/09 02:41:28;;;;;;;14.20;3.60;;;8.10;83.60;;;;;;5014519;28;20057;-50
2022/01/09 02:43:54;;;;;;;10.85;2.78;;;8.10;83.50;;;;;;5021905;28;20440;-48
2022/01/09 02:48:51;;;;;;;15.38;3.95;;;8.10;83.40;;;;;;5024188;28;20108;-49
2022/01/09 02:51:18;;;;;;;8.88;3.08;;;8.10;83.30;;;;;;5020759;28;20095;-53
2022/01/09 02:53:56;;;;;;;12.63;3.72;;;8.10;83.20;;;;;;5008978;28;20519;-51
2022/01/09 02:56:23;;;;;;;7.90;2.53;;;8.10;83.20;;;;;;5025683;28;20099;-52
2022/01/09 02:58:50;;;;;;;11.40;2.80;;;8.10;83.20;;;;;;5016863;28;20451;-49
2022/01/09 03:01:19;;;;;;;8.02;2.72;;;8.10;83.30;;;;;;5021293;28;20104;-52
2022/01/09 03:03:46;;;;;;;14.68;3.28;;;8.10;83.30;;;;;;5011067;28;20053;-49
2022/01/09 03:06:15;;;;;;;10.60;3.45;;;8.10;83.50;;;;;;5013515;28;20065;-49
2022/01/09 03:08:41;;;;;;;13.60;3.30;;;8.10;83.50;;;;;;5015036;28;20099;-49
2022/01/09 03:11:08;;;;;;;18.20;3.60;;;8.10;83.50;;;;;;5021557;28;20125;-49
2022/01/09 03:13:35;;;;;;;14.30;4.03;;;8.10;83.60;;;;;;5029852;28;20457;-47
2022/01/09 03:16:02;;;;;;;19.88;4.57;;;8.10;83.60;;;;;;5021375;28;20091;-51
2022/01/09 03:18:29;;;;;;;16.00;4.15;;;8.10;83.80;;;;;;5014547;28;20050;-52
2022/01/09 03:20:55;;;;;;;14.35;3.63;;;8.20;84.40;;;;;;5026781;28;20081;-50
2022/01/09 03:23:22;;;;;;;19.88;4.57;;;8.20;83.90;;;;;;5024381;28;20050;-50
2022/01/09 03:25:49;;;;;;;13.95;4.63;;;8.20;83.90;;;;;;5010994;28;20525;-52
2022/01/09 03:28:16;;;;;;;20.35;5.22;;;8.20;84.00;;;;;;5011876;28;20506;-51
2022/01/09 03:30:43;;;;;;;11.93;4.25;;;8.30;84.10;;;;;;5023595;28;20042;-51
2022/01/09 03:33:10;;;;;;;19.20;5.82;;;8.30;84.10;;;;;;5030319;28;20045;-50
2022/01/09 03:35:37;;;;;;;16.50;4.88;;;8.30;84.10;;;;;;5015300;28;20065;-49
2022/01/09 03:38:05;;;;;;;18.42;5.38;;;8.30;84.10;;;;;;5018179;28;20536;-51
2022/01/09 03:40:32;;;;;;;23.15;6.07;;;8.30;84.10;;;;;;5022474;28;20046;-51
2022/01/09 03:42:59;;;;;;;18.85;5.28;;;8.40;84.10;;;;;;5031913;28;20199;-52
2022/01/09 03:45:26;;;;;;;14.60;5.38;;;8.40;84.10;;;;;;5025225;28;20053;-48
2022/01/09 03:47:53;;;;;;;20.92;5.63;;;8.40;84.10;;;;;;5018400;28;20034;-51
2022/01/09 03:50:20;;;;;;;12.52;4.05;;;8.50;84.10;;;;;;5024112;28;20053;-51
2022/01/09 03:52:49;;;;;;;15.15;4.20;;;8.50;84.00;;;;;;5029901;28;20041;-50
2022/01/09 03:55:19;;;;;;;20.60;5.70;;;8.50;83.90;;;;;;5009146;28;20727;-51
2022/01/09 03:57:46;;;;;;;17.00;5.82;;;8.50;83.70;;;;;;5010093;28;20508;-47
2022/01/09 04:00:16;;;;;;;19.75;5.60;;;8.50;83.70;;;;;;5023736;28;20037;-50
2022/01/09 04:02:48;;;;;;;14.30;4.00;;;8.50;83.60;;;;;;5031914;28;20073;-46
2022/01/09 04:05:18;;;;;;;12.82;4.47;;;8.50;83.60;;;;;;5016448;28;20050;-49
2022/01/09 04:07:45;;;;;;;19.90;3.97;;;8.50;83.60;;;;;;5007286;28;20041;-50
2022/01/09 04:10:22;;;;;;;22.38;4.68;;;8.50;83.50;;;;;;5015168;28;20040;-51
2022/01/09 04:12:51;;;;;;;19.35;4.22;;;8.50;83.50;;;;;;5011879;28;20038;-48
2022/01/09 04:15:18;;;;;;;22.50;5.80;;;8.50;83.40;;;;;;5010237;28;20089;-51
2022/01/09 04:20:15;;;;;;;20.95;4.18;;;8.50;83.40;;;;;;5027115;28;20049;-52
2022/01/09 04:22:44;;;;;;;16.10;3.58;;;8.50;83.50;;;;;;5024041;28;20041;-46
2022/01/09 04:25:11;;;;;;;17.55;4.03;;;8.50;83.50;;;;;;5028193;28;20037;-47
2022/01/09 04:27:41;;;;;;;21.63;4.72;;;8.50;83.50;;;;;;5012463;28;20053;-47
2022/01/09 04:30:09;;;;;;;18.50;4.93;;;8.40;83.50;;;;;;5011252;28;20046;-49
2022/01/09 04:32:36;;;;;;;13.75;3.70;;;8.50;83.60;;;;;;5006361;28;20135;-47
2022/01/09 04:35:03;;;;;;;12.43;4.65;;;8.50;83.50;;;;;;5021270;28;20038;-49
2022/01/09 04:37:32;;;;;;;11.65;3.17;;;8.50;83.40;;;;;;5023521;28;20052;-47
2022/01/09 04:40:00;;;;;;;13.32;4.05;;;8.40;83.30;;;;;;5029719;28;20546;-50
2022/01/09 04:42:38;;;;;;;13.60;4.32;;;8.50;83.40;;;;;;5022559;28;20057;-50
2022/01/09 04:45:07;;;;;;;11.15;3.58;;;8.50;83.40;;;;;;5018732;28;20107;-48
2022/01/09 04:47:34;;;;;;;13.95;4.45;;;8.50;83.40;;;;;;5022424;28;20095;-50
2022/01/09 04:50:01;;;;;;;11.35;3.53;;;8.40;83.30;;;;;;5030601;28;20033;-50
2022/01/09 04:52:33;;;;;;;13.82;3.95;;;8.50;83.30;;;;;;5019093;28;20061;-50
2022/01/09 04:55:00;;;;;;;14.00;2.97;;;8.40;83.20;;;;;;5016588;28;20041;-47
2022/01/09 04:57:27;;;;;;;15.65;3.92;;;8.50;83.20;;;;;;5020787;28;20104;-50
2022/01/09 04:59:54;;;;;;;14.18;3.67;;;8.40;83.10;;;;;;5030348;28;20497;-49
2022/01/09 05:02:21;;;;;;;12.57;2.97;;;8.40;83.00;;;;;;5027467;28;20180;-48
2022/01/09 05:04:48;;;;;;;13.27;3.15;;;8.40;83.00;;;;;;5015364;28;20100;-51
2022/01/09 05:07:16;;;;;;;12.50;3.95;;;8.40;82.90;;;;;;5010445;28;20038;-50
2022/01/09 05:09:43;;;;;;;10.82;2.95;;;8.40;83.00;;;;;;5016123;28;20095;-49
2022/01/09 05:12:10;;;;;;;8.20;2.78;;;8.40;82.90;;;;;;5012953;28;20037;-49
2022/01/09 05:14:37;;;;;;;11.75;3.03;;;8.30;82.80;;;;;;5020160;28;20038;-50
2022/01/09 05:17:05;;;;;;;9.20;2.58;;;8.30;82.80;;;;;;5011164;28;20045;-48
2022/01/09 05:19:34;;;;;;;16.35;3.20;;;8.30;82.80;;;;;;5012665;28;20069;-51
2022/01/09 05:22:02;;;;;;;13.43;3.42;;;8.30;82.80;;;;;;5020664;28;20049;-49
2022/01/09 05:24:29;;;;;;;13.27;3.13;;;8.30;82.80;;;;;;5014475;28;20502;-49
2022/01/09 05:26:56;;;;;;;16.05;2.58;;;8.30;82.70;;;;;;5004532;28;20042;-48
2022/01/09 05:29:23;;;;;;;8.00;2.75;;;8.30;82.70;;;;;;5008175;28;20092;-49
2022/01/09 05:31:50;;;;;;;12.32;3.80;;;8.30;82.70;;;;;;5021561;28;20037;-51
2022/01/09 05:34:17;;;;;;;12.27;3.40;;;8.30;82.70;;;;;;5035871;22;20038;-83
2022/01/09 05:36:44;;;;;;;10.57;2.88;;;8.30;82.60;;;;;;5045578;28;20490;-84
2022/01/09 05:39:12;;;;;;;8.90;2.58;;;8.30;82.60;;;;;;5029842;28;20054;-82
2022/01/09 05:41:40;;;;;;;10.63;3.25;;;8.30;82.50;;;;;;5032312;28;20064;-83
2022/01/09 05:44:08;;;;;;;8.52;2.33;;;8.30;82.40;;;;;;5027970;28;20045;-84
2022/01/09 05:46:35;;;;;;;6.38;1.98;;;8.20;82.30;;;;;;5013342;28;20064;-84
2022/01/09 05:49:02;;;;;;;10.90;3.45;;;8.20;82.30;;;;;;5027332;28;20053;-84
2022/01/09 05:51:28;;;;;;;9.90;3.08;;;8.20;82.30;;;;;;5029177;28;20042;-84
2022/01/09 05:53:55;;;;;;;10.80;2.65;;;8.20;82.20;;;;;;5025581;28;20041;-84
2022/01/09 05:56:22;;;;;;;10.80;2.50;;;8.20;82.80;;;;;;5027468;28;20045;-82
2022/01/09 05:58:49;;;;;;;8.73;3.20;;;8.10;82.10;;;;;;5007072;28;20048;-83
2022/01/09 06:01:16;;;;;;;15.10;3.42;;;8.10;82.20;;;;;;5001213;28;20038;-84
2022/01/09 06:03:44;;;;;;;11.77;2.72;;;8.10;82.30;;;;;;5011877;28;20072;-82
2022/01/09 06:06:11;;;;;;;15.10;3.05;;;8.10;82.50;;;;;;5011961;28;20099;-83
2022/01/09 06:08:38;;;;;;;14.07;3.72;;;8.10;82.50;;;;;;5027439;28;20037;-83
2022/01/09 06:11:05;;;;;;;7.20;2.85;;;8.10;82.50;;;;;;5029234;28;20033;-82
2022/01/09 06:13:31;;;;;;;10.45;3.38;;;8.10;82.50;;;;;;5027582;28;20046;-82
2022/01/09 06:15:58;;;;;;;8.13;2.97;;;8.10;82.50;;;;;;5028321;28;20042;-82
2022/01/09 06:18:25;;;;;;;7.68;2.85;;;8.10;82.50;;;;;;5026832;28;20080;-82
2022/01/09 06:20:52;;;;;;;11.05;3.50;;;8.10;82.50;;;;;;5029917;28;20050;-80
2022/01/09 06:23:20;;;;;;;10.05;2.33;;;8.10;82.60;;;;;;5032970;28;20440;-79
2022/01/09 06:25:51;;;;;;;8.90;2.58;;;8.10;82.70;;;;;;5022791;28;20138;-79
2022/01/09 06:28:18;;;;;;;14.23;3.72;;;8.10;82.60;;;;;;5021215;28;20050;-79
2022/01/09 06:30:45;;;;;;;12.48;3.38;;;8.10;82.60;;;;;;5022196;28;20041;-80
2022/01/09 06:33:13;;;;;;;9.82;2.80;;;8.10;82.60;;;;;;5019127;28;20042;-80
2022/01/09 06:35:41;;;;;;;11.82;3.45;;;8.10;82.60;;;;;;5025536;28;20037;-79
2022/01/09 06:38:08;;;;;;;12.95;4.07;;;8.20;82.50;;;;;;5013266;28;20045;-82
2022/01/09 06:40:36;;;;;;;10.77;2.70;;;8.10;82.50;;;;;;5032624;28;20052;-84
2022/01/09 06:43:04;;;;;;;9.60;2.90;;;8.10;82.30;;;;;;5026643;28;20045;-83
2022/01/09 06:45:31;;;;;;;12.77;3.35;;;8.10;82.10;;;;;;5024933;28;20064;-83
2022/01/09 06:47:58;;;;;;;4.88;2.55;;;8.10;81.90;;;;;;5040771;28;20373;-82
2022/01/09 06:50:27;;;;;;;6.80;2.72;;;8.10;81.80;;;;;;5026653;28;20440;-84
2022/01/09 06:52:54;;;;;;;8.70;3.17;;;8.10;81.90;;;;;;5002669;28;20072;-82
2022/01/09 06:55:21;;;;;;;10.45;2.97;;;8.10;82.00;;;;;;5030973;28;20096;-81
2022/01/09 06:57:48;;;;;;;8.50;2.83;;;8.10;82.00;;;;;;5031835;28;20520;-78
2022/01/09 07:00:17;;;;;;;8.23;3.03;;;8.10;82.00;;;;;;5047275;28;20041;-77
2022/01/09 07:02:44;;;;;;;7.38;2.92;;;8.10;82.00;;;;;;5031613;28;20745;-76
2022/01/09 07:05:13;;;;;;;10.70;2.70;;;8.00;81.70;;;;;;5035386;28;20076;-77
2022/01/09 07:07:40;;;;;;;8.57;2.80;;;8.00;81.70;;;;;;5037968;28;20489;-76
2022/01/09 07:10:08;;;;;;;7.80;2.88;;;8.00;81.70;;;;;;5025482;28;20045;-77
2022/01/09 07:12:35;;;;;;;12.20;2.75;;;8.00;81.70;;;;;;5019311;28;20045;-78
2022/01/09 07:15:04;;;;;;;10.95;3.22;;;8.00;81.70;;;;;;5030613;28;20049;-78
2022/01/09 07:17:31;;;;;;;11.63;2.58;;;8.00;81.90;;;;;;5028166;28;20050;-78
2022/01/09 07:19:58;;;;;;;6.57;2.17;;;8.00;82.00;;;;;;5021196;28;20049;-77
2022/01/09 07:22:27;;;;;;;9.77;2.75;;;8.00;82.00;;;;;;5019387;28;20508;-78
2022/01/09 07:24:55;;;;;;;8.68;2.60;;;7.90;81.90;;;;;;5025292;28;20053;-78
2022/01/09 07:27:22;;;;;;;7.60;2.25;;;8.00;81.90;;;;;;5030945;28;20064;-77
2022/01/09 07:29:49;;;;;;;8.75;2.15;;;8.00;82.00;;;;;;5027150;28;20053;-77
2022/01/09 07:32:16;;;;;;;7.68;2.30;;;8.00;82.00;;;;;;5022596;28;20082;-77
2022/01/09 07:34:43;;;;;;;8.45;2.65;;;7.90;82.00;;;;;;5028801;28;20076;-77
2022/01/09 07:37:11;;;;;;;4.88;2.42;;;8.00;82.00;;;;;;5019803;28;20045;-77
2022/01/09 07:39:37;;;;;;;10.98;2.72;;;8.00;81.90;;;;;;4990601;28;20661;-77
2022/01/09 07:42:05;;;;;;;7.70;3.22;;;7.90;81.80;;;;;;4998263;28;20056;-77
2022/01/09 07:44:32;;;;;;;6.90;2.30;;;8.00;82.00;;;;;;5019874;28;20041;-77
2022/01/09 07:46:59;;;;;;;7.28;2.90;;;7.90;82.00;;;;;;5022792;28;20033;-78
2022/01/09 07:49:26;;;;;;;5.88;2.38;;;7.90;82.00;;;;;;5023818;28;20068;-77
2022/01/09 07:51:53;;;;;;;10.35;3.80;;;7.90;82.00;;;;;;5020295;28;20049;-78
2022/01/09 07:54:20;;;;;;;8.52;3.53;;;8.00;82.20;;;;;;4998495;28;20042;-77
2022/01/09 07:56:47;;;;;;;6.22;3.08;;;8.00;82.30;;;;;;5018005;28;20547;-78
2022/01/09 07:59:13;;;;;;;10.20;3.70;;;8.00;82.30;;;;;;5037217;28;20045;-77
2022/01/09 08:01:46;;;;;;;7.20;3.15;;;7.90;82.20;;;;;;5018292;28;20055;-77
2022/01/09 08:04:13;;;;;;;10.27;2.67;;;8.00;82.30;;;;;;5021723;28;20072;-77
2022/01/09 08:06:40;;;;;;;9.52;3.05;;;8.30;82.40;;;;;;5011912;28;20095;-77
2022/01/09 08:09:08;;;;;;;9.05;2.90;;;8.00;82.20;;;;;;5023353;28;20033;-77
2022/01/09 08:11:35;;;;;;;7.72;3.05;;;8.00;82.20;;;;;;5013576;28;20052;-77
2022/01/09 08:14:02;;;;;;;9.98;2.88;;;8.00;82.20;;;;;;5028980;28;20045;-77
2022/01/09 08:16:29;;;;;;;5.43;3.13;;;8.00;82.00;;;;;;5009779;28;20041;-77
2022/01/09 08:18:55;;;;;;;4.97;2.05;;;8.10;81.90;;;;;;5021149;28;20050;-77
2022/01/09 08:21:22;;;;;;;9.43;2.58;;;8.00;81.80;;;;;;5014120;28;20552;-78
2022/01/09 08:23:50;;;;;;;8.23;2.58;;;8.00;81.90;;;;;;5027735;28;20033;-76
2022/01/09 08:26:18;;;;;;;8.38;2.25;;;8.00;82.00;;;;;;5015328;28;20107;-76
2022/01/09 08:28:47;;;;;;;7.05;2.55;;;8.00;82.20;;;;;;5026088;28;20044;-76
2022/01/09 08:31:16;;;;;;;7.82;1.88;;;8.00;82.20;;;;;;5014728;28;20404;-76
2022/01/09 08:33:44;;;;;;;5.60;2.33;;;8.00;82.20;;;;;;5024826;28;20094;-76
2022/01/09 08:36:12;;;;;;;5.03;2.08;;;8.00;82.10;;;;;;5015462;28;20045;-76
2022/01/09 08:38:39;;;;;;;6.82;2.40;;;8.10;82.10;;;;;;5022110;28;20509;-76
2022/01/09 08:41:06;;;;;;;6.20;2.30;;;8.00;82.10;;;;;;5009113;28;20053;-76
2022/01/09 08:43:36;;;;;;;8.20;2.35;;;8.00;82.20;;;;;;5027778;28;20052;-76
2022/01/09 08:46:04;;;;;;;5.82;2.13;;;8.00;82.20;;;;;;5026568;28;20138;-76
2022/01/09 08:48:31;;;;;;;5.05;2.40;;;8.00;82.10;;;;;;5044818;28;20668;-76
2022/01/09 08:50:58;;;;;;;5.13;2.40;;;8.00;82.20;;;;;;5021915;28;20038;-76
2022/01/09 08:53:25;;;;;;;8.65;2.80;;;8.00;82.30;;;;;;5025139;28;20048;-76
2022/01/09 08:55:52;;;;;;;12.63;3.40;;;8.00;82.30;;;;;;5028073;23;20564;-49
2022/01/09 08:58:19;;;;;;;8.20;2.85;;;8.00;82.20;;;;;;5017483;28;20049;-49
2022/01/09 09:00:46;;;;;;;10.57;3.22;;;8.00;82.20;;;;;;5000767;28;20069;-49
2022/01/09 09:03:13;;;;;;;6.13;2.95;;;8.00;82.20;;;;;;5010409;28;20133;-48
2022/01/09 09:05:40;;;;;;;10.80;3.25;;;8.00;82.20;;;;;;5003266;28;20088;-47
2022/01/09 09:08:06;;;;;;;9.02;3.42;;;8.00;82.20;;;;;;5014590;28;20069;-49
2022/01/09 09:10:33;;;;;;;7.15;3.03;;;8.00;82.20;;;;;;5002334;28;20770;-48
2022/01/09 09:13:00;;;;;;;10.30;3.47;;;8.00;82.20;;;;;;5006136;28;20030;-48
2022/01/09 09:15:28;;;;;;;9.65;3.95;;;8.00;82.20;;;;;;5002105;28;20065;-51
2022/01/09 09:17:55;;;;;;;8.65;3.55;;;8.00;82.40;;;;;;5001043;28;20061;-50
2022/01/09 09:20:23;;;;;;;6.82;3.65;;;8.00;82.40;;;;;;5005728;28;20519;-49
2022/01/09 09:22:50;;;;;;;9.52;5.03;;;8.00;82.40;;;;;;5013182;28;20041;-49
2022/01/09 09:25:17;;;;;;;11.68;4.10;;;8.00;82.40;;;;;;4995753;28;20047;-49
2022/01/09 09:27:45;;;;;;;9.13;4.10;;;8.10;82.50;;;;;;5013336;28;20041;-48
2022/01/09 09:30:14;;;;;;;17.58;4.43;;;8.10;82.50;;;;;;5005524;28;20042;-51
2022/01/09 09:32:42;;;;;;;8.63;3.63;;;8.10;82.60;;;;;;5005899;28;20042;-43
2022/01/09 09:35:10;;;;;;;8.23;3.42;;;8.10;82.50;;;;;;4999407;28;20037;-46
2022/01/09 09:37:38;;;;;;;12.25;3.70;;;8.10;82.50;;;;;;5011482;28;20133;-43
2022/01/09 09:40:05;;;;;;;10.23;3.28;;;8.10;82.50;;;;;;5008745;28;20409;-43
2022/01/09 09:42:32;;;;;;;9.60;3.80;;;8.10;82.40;;;;;;5008461;28;20125;-44
2022/01/09 09:45:01;;;;;;;9.15;3.78;;;8.10;82.40;;;;;;5002682;28;20100;-45
2022/01/09 09:47:28;;;;;;;6.57;3.50;;;8.10;82.40;;;;;;5011609;28;20042;-45
2022/01/09 09:49:55;;;;;;;10.57;3.97;;;8.20;82.50;;;;;;5018276;28;20092;-44
2022/01/09 09:52:22;;;;;;;6.18;3.05;;;8.10;82.40;;;;;;5006066;28;20034;-44
2022/01/09 09:54:51;;;;;;;10.43;3.63;;;8.20;82.60;;;;;;5008326;28;20062;-44
2022/01/09 09:57:18;;;;;;;9.75;3.53;;;8.20;82.50;;;;;;5008506;28;20074;-43
2022/01/09 09:59:44;;;;;;;7.82;3.20;;;8.20;82.80;;;;;;5000633;28;22395;-45
2022/01/09 10:02:17;;;;;;;5.75;3.03;;;8.20;83.00;;;;;;5007282;28;20037;-45
2022/01/09 10:05:05;;;;;;;7.35;3.33;;;8.30;83.00;;;;;;5011821;28;21591;-46
2022/01/09 10:07:32;;;;;;;8.40;3.33;;;8.30;83.10;;;;;;5002323;28;20054;-45
2022/01/09 10:10:02;;;;;;;9.23;4.10;;;8.30;82.30;;;;;;5002164;28;20046;-43
2022/01/09 10:12:32;;;;;;;6.05;3.05;;;8.30;82.30;;;;;;5009635;28;20700;-46
2022/01/09 10:15:01;;;;;;;7.85;3.25;;;8.30;82.30;;;;;;5009495;28;20556;-43
2022/01/09 10:17:30;;;;;;;8.18;3.20;;;8.30;82.20;;;;;;5007691;28;20100;-45
2022/01/09 10:20:04;;;;;;;8.73;3.22;;;8.40;82.40;;;;;;5000946;28;20378;-44
2022/01/09 10:22:44;;;;;;;7.30;3.15;;;8.40;82.50;;;;;;5010160;28;20054;-48
2022/01/09 10:25:35;;;;;;;8.90;3.15;;;8.30;82.50;;;;;;5004165;28;20642;-45
2022/01/09 10:28:05;;;;;;;7.95;2.95;;;8.40;82.50;;;;;;5004087;28;20047;-45
2022/01/09 10:30:46;;;;;;;6.97;2.83;;;8.40;82.80;;;;;;4997889;28;20069;-47
2022/01/09 10:33:16;;;;;;;6.43;3.00;;;8.50;82.70;;;;;;5016441;28;20426;-43
2022/01/09 10:35:45;;;;;;;7.45;3.00;;;8.50;82.80;;;;;;5002138;28;20037;-43
2022/01/09 10:38:21;;;;;;;9.77;3.55;;;8.50;82.70;;;;;;5010779;28;20053;-43
2022/01/09 10:40:55;;;;;;;8.65;3.15;;;8.50;82.60;;;;;;5006092;28;20417;-44
2022/01/09 10:43:24;;;;;;;5.25;3.10;;;8.60;83.20;;;;;;5011764;28;20568;-44
2022/01/09 10:45:59;;;;;;;5.78;3.25;;;8.60;83.10;;;;;;5005779;28;20528;-45
2022/01/09 10:48:46;;;;;;;7.90;3.53;;;8.60;82.40;;;;;;5011448;28;20046;-44
2022/01/09 10:51:14;;;;;;;7.80;4.40;;;8.60;82.00;;;;;;5009037;28;20572;-43
2022/01/09 10:53:43;;;;;;;7.70;3.20;;;8.60;82.10;;;;;;5013323;28;20505;-43
2022/01/09 10:56:14;;;;;;;6.57;3.47;;;8.60;82.00;;;;;;5003191;28;20533;-45
2022/01/09 10:58:44;;;;;;;5.50;3.00;;;8.70;81.70;;;;;;5018609;28;20414;-45
2022/01/09 11:01:28;;;;;;;8.82;3.40;;;8.70;81.70;;;;;;5004282;28;20038;-44
2022/01/09 11:04:00;;;;;;;7.50;3.60;;;8.70;81.90;;;;;;5009785;28;20070;-45
2022/01/09 11:06:33;;;;;;;6.20;4.38;;;8.60;82.40;;;;;;5002197;28;20465;-46
2022/01/09 11:09:00;;;;;;;;;;;8.70;82.80;;;;;;5012152;28;20034;-44
2022/01/09 11:11:39;;;;;;;5.35;3.10;;;8.70;83.10;;;;;;5006495;28;19929;-45
2022/01/09 11:14:11;;;;;;;8.60;3.60;;;8.80;82.40;;;;;;5009059;28;20406;-44
2022/01/09 11:16:42;;;;;;;;;;;8.80;82.20;;;;;;5006079;28;20108;-44
2022/01/09 11:19:11;;;;;;;8.32;3.65;;;8.80;82.40;;;;;;5015148;28;19932;-44
2022/01/09 11:22:06;;;;;;;6.65;3.88;;;8.80;81.90;;;;;;5004709;28;20104;-44
2022/01/09 11:25:00;;;;;;;9.32;3.92;;;8.80;81.60;;;;;;5020402;28;20116;-44
2022/01/09 11:28:12;;;;;;;7.35;4.32;;;8.80;81.60;;;;;;5014065;28;20101;-45
2022/01/09 11:31:00;;;;;;;7.65;3.97;;;8.80;81.70;;;;;;5022634;28;20061;-43
2022/01/09 11:33:45;;;;;;;10.43;4.07;;;8.80;82.10;;;;;;5031636;28;20053;-43
2022/01/09 11:36:30;;;;;;;11.10;3.70;;;8.80;82.20;;;;;;5036430;22;20046;-43
2022/01/09 11:39:23;;;;;;;10.85;3.88;;;8.90;82.50;;;;;;5009956;28;20038;-44
2022/01/09 11:42:11;;;;;;;9.07;3.97;;;8.90;82.60;;;;;;5009212;28;20046;-44
2022/01/09 11:44:48;;;;;;;7.40;3.75;;;9.00;82.90;;;;;;5011603;28;20049;-44
2022/01/09 11:47:15;;;;;;;10.05;4.22;;;9.10;82.80;;;;;;5024005;28;20041;-47
2022/01/09 11:49:54;;;;;;;11.35;4.45;;;9.10;82.70;;;;;;5023587;28;20042;-44
2022/01/09 11:52:22;;;;;;;11.32;5.20;;;9.10;82.50;;;;;;5020492;28;20042;-45
2022/01/09 11:55:05;;;;;;;8.32;4.53;;;9.20;82.40;;;;;;5015992;28;20037;-44
2022/01/09 11:57:44;;;;;;;10.15;3.90;;;9.20;82.00;;;;;;5024512;28;20413;-44
2022/01/09 12:00:29;;;;;;;10.15;4.15;;;9.20;82.10;;;;;;5019187;28;20092;-43
2022/01/09 12:02:57;;;;;;;7.90;3.78;;;9.30;81.80;;;;;;5008733;28;20093;-43
2022/01/09 12:05:24;;;;;;;12.07;4.30;;;9.30;81.80;;;;;;5015172;28;20050;-44
2022/01/09 12:07:54;;;;;;;8.73;3.97;;;9.30;81.60;;;;;;5012022;28;20065;-45
2022/01/09 12:10:29;;;;;;;7.77;3.70;;;9.30;81.20;;;;;;5011561;28;20137;-45
2022/01/09 12:12:57;;;;;;;9.50;5.60;;;9.30;81.10;;;;;;5008085;28;20060;-43
2022/01/09 12:15:42;;;;;;;10.38;5.05;;;9.30;81.00;;;;;;5019558;28;20084;-44
2022/01/09 12:18:42;;;;;;;7.38;4.22;;;9.30;80.80;;;;;;5031450;28;20037;-45
2022/01/09 12:21:52;;;;;;;13.48;6.85;;;9.30;80.70;;;;;;5012554;28;20050;-44
2022/01/09 12:24:41;;;;;;;54.22;40.22;;;9.30;80.90;;;;;;5019285;28;20091;-44
2022/01/09 12:27:59;;;;;;;14.25;8.20;;;9.30;80.70;;;;;;5019484;28;20563;-47
2022/01/09 12:30:48;;;;;;;8.60;4.95;;;9.30;80.50;;;;;;5011234;28;20065;-44
2022/01/09 12:33:31;;;;;;;9.90;4.55;;;9.20;80.30;;;;;;5017533;28;20045;-43
2022/01/09 12:36:03;;;;;;;6.32;4.40;;;9.20;80.20;;;;;;5018348;28;20136;-45
2022/01/09 12:38:33;;;;;;;7.00;4.13;;;9.10;80.00;;;;;;5031438;28;20045;-48
2022/01/09 12:41:05;;;;;;;12.98;4.22;;;9.10;80.00;;;;;;5009217;28;20030;-44
2022/01/09 12:43:34;;;;;;;10.07;4.30;;;9.00;80.20;;;;;;5014713;28;20593;-46
2022/01/09 12:46:17;;;;;;;10.15;5.43;;;9.00;80.50;;;;;;5008685;28;20095;-47
2022/01/09 12:48:54;;;;;;;;;;;8.90;80.50;;;;;;5021357;28;20064;-44
2022/01/09 12:51:22;;;;;;;10.00;7.53;;;8.90;80.90;;;;;;5009715;28;19921;-45
2022/01/09 12:53:51;;;;;;;12.10;8.90;;;8.80;80.20;;;;;;5001348;28;20479;-45
2022/01/09 12:56:23;;;;;;;19.15;9.25;;;8.80;80.40;;;;;;4992693;28;20042;-46
2022/01/09 12:58:51;;;;;;;;;;;8.70;80.70;;;;;;5007490;28;20034;-44
2022/01/09 13:01:23;;;;;;;7.43;3.08;;;8.70;81.10;;;;;;4994217;28;19922;-45
2022/01/09 13:03:57;;;;;;;9.68;4.68;;;8.70;80.80;;;;;;5014527;28;20099;-45
2022/01/09 13:06:27;;;;;;;3.67;2.75;;;8.60;80.80;;;;;;5001216;28;20125;-46
2022/01/09 13:08:56;;;;;;;3.03;2.70;;;8.60;80.70;;;;;;5005231;28;20549;-45
2022/01/09 13:11:43;;;;;;;3.40;3.10;;;8.60;80.60;;;;;;4996637;28;20662;-45